Time;durP1;ratioP1;P1;durP2;ratioP2;P2;SDS_P1;SDS_P2;PMS_P1;PMS_P2;Temp;Humidity;BMP_temperature;BMP_pressure;BME280_temperature;BME280_humidity;BME280_pressure;Samples;Min_cycle;Max_cycle;Signal;HPM_P1;HPM_P2
2022/03/30 00:02:08;;;;;;;32.30;20.47;;;7.20;91.70;;;;;;5043652;28;20158;-78
2022/03/30 00:12:16;;;;;;;34.92;20.98;;;7.40;91.20;;;;;;5070430;28;20028;-77
2022/03/30 00:15:01;;;;;;;30.00;19.52;;;7.20;91.20;;;;;;5049307;28;20550;-76
2022/03/30 00:17:45;;;;;;;31.40;20.05;;;7.20;91.30;;;;;;5030140;28;20166;-79
2022/03/30 00:20:30;;;;;;;35.00;19.58;;;7.00;92.00;;;;;;5016014;28;20067;-80
2022/03/30 00:23:14;;;;;;;42.15;20.58;;;7.20;91.70;;;;;;5030549;28;20044;-77
2022/03/30 00:25:59;;;;;;;36.25;19.75;;;7.20;91.70;;;;;;5027355;28;20087;-77
2022/03/30 00:28:43;;;;;;;33.80;18.90;;;7.30;91.30;;;;;;5027991;28;20070;-77
2022/03/30 00:31:27;;;;;;;33.72;18.33;;;7.20;91.30;;;;;;5014481;28;20075;-79
2022/03/30 00:34:12;;;;;;;34.33;18.80;;;7.20;91.30;;;;;;5021793;28;20460;-78
2022/03/30 00:36:56;;;;;;;30.70;16.77;;;7.20;91.40;;;;;;5010745;28;20036;-81
2022/03/30 00:39:40;;;;;;;35.45;17.70;;;7.20;91.40;;;;;;5009730;28;20056;-78
2022/03/30 00:42:25;;;;;;;27.42;16.08;;;7.10;91.30;;;;;;5043543;28;20416;-81
2022/03/30 00:45:15;;;;;;;34.97;18.98;;;7.10;91.10;;;;;;5024317;28;20039;-78
2022/03/30 00:47:59;;;;;;;26.88;15.32;;;7.10;90.90;;;;;;5026144;28;20108;-79
2022/03/30 00:50:43;;;;;;;28.67;16.73;;;7.10;90.80;;;;;;5047066;28;20071;-80
2022/03/30 00:53:28;;;;;;;25.40;13.50;;;7.00;90.70;;;;;;5026915;28;20095;-79
2022/03/30 00:56:12;;;;;;;27.52;15.30;;;6.90;90.90;;;;;;5044362;28;20044;-77
2022/03/30 00:58:56;;;;;;;23.80;14.43;;;6.90;90.90;;;;;;5048024;28;20034;-77
2022/03/30 01:01:41;;;;;;;31.17;15.75;;;6.80;91.30;;;;;;5053772;28;20063;-78
2022/03/30 01:04:27;;;;;;;27.95;14.25;;;6.90;90.90;;;;;;5021694;28;20101;-76
2022/03/30 01:07:12;;;;;;;24.20;14.27;;;6.90;90.80;;;;;;5057094;28;20048;-76
2022/03/30 01:09:57;;;;;;;24.05;13.65;;;6.90;91.00;;;;;;5044208;28;20078;-77
2022/03/30 01:12:41;;;;;;;30.30;14.25;;;7.00;90.70;;;;;;5024060;28;20047;-77
2022/03/30 01:15:26;;;;;;;25.58;15.48;;;6.80;90.80;;;;;;5043898;28;20032;-77
2022/03/30 01:18:10;;;;;;;24.42;14.02;;;6.80;91.20;;;;;;5042113;28;20039;-77
2022/03/30 01:20:54;;;;;;;26.83;14.07;;;6.70;91.20;;;;;;5027630;28;20122;-79
2022/03/30 01:23:38;;;;;;;23.97;15.27;;;6.80;91.10;;;;;;5022838;28;20066;-78
2022/03/30 01:26:23;;;;;;;26.27;14.10;;;6.80;91.30;;;;;;5022768;28;20108;-80
2022/03/30 01:32:26;;;;;;;26.42;14.55;;;6.70;91.30;;;;;;5040479;28;20119;-77
2022/03/30 01:35:11;;;;;;;27.60;15.20;;;6.60;91.40;;;;;;5036819;28;20039;-79
2022/03/30 01:37:55;;;;;;;27.63;15.52;;;6.60;91.80;;;;;;5047092;28;20043;-81
2022/03/30 01:40:39;;;;;;;30.07;15.17;;;6.70;91.40;;;;;;5009887;28;20036;-81
2022/03/30 01:43:23;;;;;;;28.80;14.23;;;6.80;91.20;;;;;;5018335;28;20064;-80
2022/03/30 01:46:07;;;;;;;26.25;15.80;;;6.70;91.50;;;;;;5026464;28;20037;-80
2022/03/30 01:48:52;;;;;;;26.80;14.77;;;6.70;91.30;;;;;;5043929;28;20094;-79
2022/03/30 01:51:36;;;;;;;21.73;13.55;;;6.70;91.50;;;;;;5030126;28;20036;-78
2022/03/30 01:54:24;;;;;;;23.67;13.43;;;6.70;91.40;;;;;;5000408;28;20029;-75
2022/03/30 01:57:12;;;;;;;20.55;12.55;;;6.50;91.60;;;;;;5045060;28;20036;-76
2022/03/30 01:59:56;;;;;;;22.60;12.00;;;6.50;91.50;;;;;;5048412;28;20094;-75
2022/03/30 02:02:41;;;;;;;20.05;11.27;;;6.40;91.50;;;;;;5022509;28;20019;-74
2022/03/30 02:05:25;;;;;;;24.42;12.80;;;6.40;91.50;;;;;;5046886;28;20098;-78
2022/03/30 02:08:10;;;;;;;24.88;12.82;;;6.30;91.80;;;;;;5023659;28;20048;-79
2022/03/30 02:10:54;;;;;;;24.98;12.20;;;6.30;91.70;;;;;;5010443;28;20396;-80
2022/03/30 02:13:38;;;;;;;24.83;10.68;;;6.40;91.50;;;;;;5039608;28;20040;-80
2022/03/30 02:16:24;;;;;;;21.85;11.38;;;6.40;91.80;;;;;;5030839;28;20087;-81
2022/03/30 02:19:08;;;;;;;22.70;11.40;;;6.40;91.50;;;;;;5025364;28;20037;-79
2022/03/30 02:21:52;;;;;;;26.90;12.02;;;6.30;91.70;;;;;;4998429;28;20033;-80
2022/03/30 02:24:36;;;;;;;18.08;10.73;;;6.40;91.70;;;;;;5042426;28;20091;-79
2022/03/30 02:27:21;;;;;;;17.95;10.00;;;6.40;91.70;;;;;;5034101;28;20047;-80
2022/03/30 02:30:07;;;;;;;23.05;10.80;;;6.30;91.40;;;;;;5047776;28;20040;-78
2022/03/30 02:32:51;;;;;;;19.48;10.27;;;6.30;91.40;;;;;;5042901;28;20067;-78
2022/03/30 02:35:36;;;;;;;28.60;11.48;;;6.20;91.70;;;;;;5042970;28;20043;-77
2022/03/30 02:38:20;;;;;;;20.38;10.35;;;6.30;91.80;;;;;;5021767;28;20040;-80
2022/03/30 02:41:06;;;;;;;21.52;10.52;;;6.40;91.80;;;;;;5022585;28;20048;-79
2022/03/30 02:43:50;;;;;;;18.60;10.38;;;6.40;91.60;;;;;;5054318;28;20107;-79
2022/03/30 02:46:35;;;;;;;20.65;11.05;;;6.40;91.50;;;;;;5030053;28;20035;-77
2022/03/30 02:49:19;;;;;;;24.05;10.32;;;6.40;91.50;;;;;;5024431;28;20041;-78
2022/03/30 02:52:05;;;;;;;18.23;10.75;;;6.30;91.60;;;;;;5034267;28;20048;-75
2022/03/30 02:54:49;;;;;;;;;;;6.20;91.80;;;;;;5065206;28;20036;-78
2022/03/30 02:57:33;;;;;;;21.73;9.73;;;6.10;92.10;;;;;;5062559;28;19970;-80
2022/03/30 03:00:17;;;;;;;22.85;10.30;;;6.10;92.10;;;;;;5031750;28;20060;-78
2022/03/30 03:03:03;;;;;;;19.60;8.65;;;6.20;92.20;;;;;;5036382;28;20028;-79
2022/03/30 03:05:47;;;;;;;20.17;9.70;;;6.10;92.10;;;;;;5042074;28;20487;-80
2022/03/30 03:08:31;;;;;;;21.33;9.07;;;6.20;92.20;;;;;;5047001;28;20056;-81
2022/03/30 03:11:15;;;;;;;20.52;9.60;;;6.20;91.90;;;;;;5064146;28;20562;-79
2022/03/30 03:14:05;;;;;;;15.18;7.93;;;6.30;91.70;;;;;;5047694;28;20079;-79
2022/03/30 03:16:49;;;;;;;16.27;8.25;;;6.10;91.70;;;;;;5032524;28;20122;-77
2022/03/30 03:19:33;;;;;;;18.52;6.93;;;6.10;91.60;;;;;;5032155;28;20048;-79
2022/03/30 03:22:17;;;;;;;17.77;8.00;;;6.10;91.60;;;;;;5016040;28;20040;-80
2022/03/30 03:25:01;;;;;;;19.27;8.65;;;6.10;91.80;;;;;;5030789;28;20044;-79
2022/03/30 03:27:46;;;;;;;15.38;7.32;;;6.10;91.60;;;;;;5031717;28;20083;-78
2022/03/30 03:30:30;;;;;;;17.35;6.28;;;5.90;91.60;;;;;;5032265;28;20056;-79
2022/03/30 03:33:15;;;;;;;16.52;7.35;;;5.90;91.60;;;;;;5045939;28;20043;-79
2022/03/30 03:35:59;;;;;;;15.23;5.80;;;5.80;91.90;;;;;;5011896;28;20107;-81
2022/03/30 03:38:44;;;;;;;15.13;5.83;;;5.90;91.60;;;;;;5013462;28;20592;-79
2022/03/30 03:41:28;;;;;;;13.38;5.75;;;5.90;91.70;;;;;;5004197;28;20056;-78
2022/03/30 03:44:12;;;;;;;13.00;6.30;;;5.90;91.60;;;;;;5023190;28;20047;-75
2022/03/30 03:46:56;;;;;;;20.08;8.45;;;5.90;91.70;;;;;;5047845;28;20064;-78
2022/03/30 03:49:41;;;;;;;18.73;8.98;;;5.80;91.50;;;;;;5019136;28;20036;-78
2022/03/30 03:52:25;;;;;;;23.83;10.83;;;5.90;91.60;;;;;;5049775;28;20063;-76
2022/03/30 03:55:11;;;;;;;16.45;7.80;;;5.90;91.60;;;;;;5049341;28;20263;-75
2022/03/30 03:57:55;;;;;;;12.18;5.85;;;5.90;91.40;;;;;;5039578;28;20037;-75
2022/03/30 04:00:39;;;;;;;15.73;5.57;;;6.00;91.50;;;;;;5023481;28;20032;-79
2022/03/30 04:03:24;;;;;;;13.63;6.30;;;6.10;91.30;;;;;;5043542;28;20515;-80
2022/03/30 04:06:09;;;;;;;13.38;6.07;;;6.10;91.10;;;;;;5024400;28;20399;-78
2022/03/30 04:08:54;;;;;;;15.23;5.40;;;6.10;91.10;;;;;;5025632;28;20083;-78
2022/03/30 04:11:38;;;;;;;13.95;6.10;;;6.10;91.40;;;;;;5026873;28;20056;-77
2022/03/30 04:14:23;;;;;;;16.63;5.95;;;6.00;91.10;;;;;;5026651;28;20087;-81
2022/03/30 04:17:07;;;;;;;15.25;5.60;;;5.90;91.40;;;;;;5031052;28;20058;-78
2022/03/30 04:19:52;;;;;;;12.75;6.00;;;5.90;91.60;;;;;;5044828;28;20040;-79
2022/03/30 04:22:36;;;;;;;12.85;5.60;;;5.80;91.50;;;;;;5024871;28;20048;-78
2022/03/30 04:25:20;;;;;;;23.90;6.38;;;5.80;91.60;;;;;;5035589;28;20028;-77
2022/03/30 04:28:05;;;;;;;22.27;6.55;;;5.90;91.40;;;;;;5019972;28;20087;-78
2022/03/30 04:30:50;;;;;;;15.35;6.13;;;5.80;91.50;;;;;;5031453;28;20076;-80
2022/03/30 04:33:34;;;;;;;20.45;6.20;;;5.60;91.70;;;;;;5051027;28;20036;-76
2022/03/30 04:36:19;;;;;;;13.35;6.32;;;5.60;91.90;;;;;;5046914;28;20035;-78
2022/03/30 04:39:03;;;;;;;14.38;6.68;;;5.70;92.00;;;;;;5045316;28;20047;-77
2022/03/30 04:41:47;;;;;;;16.42;6.97;;;5.70;92.00;;;;;;5034903;28;20027;-79
2022/03/30 04:44:31;;;;;;;14.88;7.25;;;5.80;91.60;;;;;;5025337;28;20456;-79
2022/03/30 04:47:16;;;;;;;12.83;6.77;;;5.70;91.50;;;;;;5016099;28;20126;-79
2022/03/30 04:50:01;;;;;;;18.25;7.32;;;5.80;91.60;;;;;;5060661;28;20040;-79
2022/03/30 04:52:45;;;;;;;13.70;6.03;;;5.70;91.70;;;;;;5044008;28;20059;-78
2022/03/30 04:55:29;;;;;;;16.08;6.88;;;5.80;91.70;;;;;;5022201;28;20067;-79
2022/03/30 04:58:13;;;;;;;12.52;6.47;;;5.70;91.80;;;;;;5035635;28;20051;-79
2022/03/30 05:00:57;;;;;;;16.67;5.93;;;5.70;91.80;;;;;;5049378;28;20061;-77
2022/03/30 05:03:41;;;;;;;13.30;6.45;;;5.70;91.80;;;;;;5034931;28;20041;-76
2022/03/30 05:06:25;;;;;;;20.40;7.05;;;5.80;91.90;;;;;;5021031;28;20044;-76
2022/03/30 05:09:09;;;;;;;15.68;7.00;;;5.80;91.80;;;;;;5031709;28;20059;-76
2022/03/30 05:11:53;;;;;;;16.58;8.50;;;5.80;91.80;;;;;;5040300;28;20116;-77
2022/03/30 05:14:37;;;;;;;18.98;6.75;;;5.80;91.80;;;;;;5062106;28;20238;-76
2022/03/30 05:17:21;;;;;;;14.38;6.32;;;5.90;91.60;;;;;;5034044;28;20035;-78
2022/03/30 05:20:06;;;;;;;18.95;8.27;;;5.80;91.70;;;;;;5039627;28;20094;-76
2022/03/30 05:22:51;;;;;;;19.38;6.93;;;5.70;91.90;;;;;;5048420;28;20043;-77
2022/03/30 05:25:35;;;;;;;18.10;6.78;;;5.70;91.80;;;;;;5043864;28;20031;-76
2022/03/30 05:28:19;;;;;;;15.57;6.10;;;5.70;91.80;;;;;;5041623;28;20087;-78
2022/03/30 05:31:05;;;;;;;19.15;6.43;;;5.70;91.90;;;;;;5013337;28;20287;-77
2022/03/30 05:33:50;;;;;;;11.93;6.43;;;5.70;91.80;;;;;;5048140;28;20038;-78
2022/03/30 05:36:35;;;;;;;;;;;5.80;91.70;;;;;;5067016;28;20048;-77
2022/03/30 05:39:19;;;;;;;16.65;6.38;;;5.80;91.60;;;;;;5009484;28;19936;-78
2022/03/30 05:42:03;;;;;;;15.63;6.60;;;5.80;91.70;;;;;;5033197;28;20113;-77
2022/03/30 05:44:47;;;;;;;15.57;7.28;;;5.90;91.40;;;;;;5057695;28;20032;-77
2022/03/30 05:47:32;;;;;;;17.38;6.72;;;5.90;91.30;;;;;;5055240;28;20576;-77
2022/03/30 05:50:16;;;;;;;14.88;6.72;;;6.00;91.20;;;;;;5040632;28;20031;-77
2022/03/30 05:53:01;;;;;;;18.13;5.97;;;6.10;91.00;;;;;;5034563;28;20399;-77
2022/03/30 05:55:45;;;;;;;14.23;6.40;;;5.90;90.80;;;;;;5019870;28;20480;-78
2022/03/30 05:58:29;;;;;;;12.98;6.07;;;5.90;90.80;;;;;;5032968;28;20137;-78
2022/03/30 06:01:13;;;;;;;21.83;7.53;;;5.70;91.10;;;;;;5006100;28;20407;-78
2022/03/30 06:03:57;;;;;;;17.10;6.65;;;5.80;91.10;;;;;;5008205;28;20036;-78
2022/03/30 06:06:41;;;;;;;14.88;5.63;;;5.70;90.90;;;;;;5006798;28;20118;-77
2022/03/30 06:09:27;;;;;;;19.80;5.97;;;5.60;91.10;;;;;;5027759;28;20060;-78
2022/03/30 06:12:13;;;;;;;14.52;6.13;;;5.60;91.20;;;;;;5024120;28;20045;-79
2022/03/30 06:14:57;;;;;;;14.18;6.60;;;5.70;91.30;;;;;;5020543;28;20036;-78
2022/03/30 06:17:41;;;;;;;15.20;6.07;;;5.80;91.20;;;;;;5022309;28;20036;-78
2022/03/30 06:20:26;;;;;;;22.08;7.40;;;5.90;91.10;;;;;;5026098;28;20059;-79
2022/03/30 06:23:11;;;;;;;17.65;6.55;;;6.00;91.00;;;;;;5035234;28;20562;-78
2022/03/30 06:25:55;;;;;;;20.52;6.25;;;6.20;90.70;;;;;;5066619;28;20043;-77
2022/03/30 06:28:40;;;;;;;16.17;6.05;;;6.20;90.40;;;;;;5029103;28;20091;-79
2022/03/30 06:31:24;;;;;;;19.10;6.25;;;6.20;90.40;;;;;;5040859;28;20099;-78
2022/03/30 06:34:08;;;;;;;26.90;8.88;;;6.10;90.70;;;;;;5031634;28;20112;-79
2022/03/30 06:36:56;;;;;;;20.55;6.47;;;6.10;90.70;;;;;;5042551;28;20060;-79
2022/03/30 06:39:40;;;;;;;19.05;7.60;;;6.10;90.70;;;;;;5051457;28;20516;-77
2022/03/30 06:42:24;;;;;;;16.90;6.30;;;6.10;90.60;;;;;;5033011;28;20091;-78
2022/03/30 06:45:10;;;;;;;14.68;5.97;;;6.10;90.60;;;;;;5027831;28;20072;-79
2022/03/30 06:47:55;;;;;;;14.75;6.20;;;6.20;90.60;;;;;;5040200;28;20389;-79
2022/03/30 06:50:39;;;;;;;16.13;6.10;;;6.10;90.60;;;;;;5045312;28;20063;-78
2022/03/30 06:53:23;;;;;;;13.75;5.70;;;6.00;90.90;;;;;;5023714;28;20154;-77
2022/03/30 06:56:08;;;;;;;19.13;5.85;;;6.10;90.90;;;;;;5043084;28;20573;-78
2022/03/30 06:58:53;;;;;;;;;;;6.10;90.80;;;;;;5044727;28;20118;-79
2022/03/30 07:01:37;;;;;;;14.32;6.25;;;6.10;90.70;;;;;;5024605;28;20034;-79
2022/03/30 07:04:22;;;;;;;19.00;5.72;;;6.30;90.90;;;;;;5019691;28;20051;-80
2022/03/30 07:10:15;;;;;;;14.63;7.07;;;6.60;90.10;;;;;;5031821;28;20520;-78
2022/03/30 07:13:03;;;;;;;12.75;5.70;;;6.80;89.00;;;;;;5040112;28;20418;-79
2022/03/30 07:15:48;;;;;;;18.63;6.78;;;6.80;88.80;;;;;;5042033;28;20063;-79
2022/03/30 07:18:32;;;;;;;16.08;6.60;;;6.70;88.60;;;;;;5026373;28;20551;-78
2022/03/30 07:21:16;;;;;;;20.02;6.38;;;6.70;88.80;;;;;;5026599;28;20044;-78
2022/03/30 07:24:01;;;;;;;14.10;6.38;;;6.70;89.10;;;;;;5022722;28;20072;-78
2022/03/30 07:26:45;;;;;;;12.17;5.70;;;6.80;88.40;;;;;;5020723;28;20035;-77
2022/03/30 07:29:29;;;;;;;9.10;5.28;;;6.80;88.50;;;;;;5044809;28;20040;-78
2022/03/30 07:32:13;;;;;;;21.42;6.20;;;6.90;87.90;;;;;;5045033;28;20400;-81
2022/03/30 07:34:57;;;;;;;19.20;6.13;;;7.00;87.70;;;;;;5035243;28;20551;-80
2022/03/30 07:37:43;;;;;;;13.70;5.55;;;7.00;87.30;;;;;;5011001;28;20401;-79
2022/03/30 07:40:29;;;;;;;18.45;6.03;;;6.90;87.20;;;;;;5021543;28;20088;-78
2022/03/30 07:43:15;;;;;;;18.17;6.70;;;7.00;87.60;;;;;;5023851;28;20052;-77
2022/03/30 07:46:00;;;;;;;13.30;6.15;;;7.10;87.60;;;;;;5053097;28;20138;-78
2022/03/30 07:48:44;;;;;;;22.70;6.65;;;7.20;87.10;;;;;;5032803;28;20064;-81
2022/03/30 07:51:29;;;;;;;23.10;7.15;;;7.10;87.10;;;;;;5024454;28;20036;-79
2022/03/30 07:54:13;;;;;;;18.98;6.22;;;7.20;87.10;;;;;;5026888;28;20504;-79
2022/03/30 07:56:57;;;;;;;15.60;5.57;;;7.30;87.00;;;;;;5029228;28;20082;-79
2022/03/30 07:59:42;;;;;;;49.03;8.35;;;7.30;85.70;;;;;;5030573;28;20132;-79
2022/03/30 08:02:27;;;;;;;16.95;6.38;;;7.50;86.30;;;;;;5017358;28;20083;-80
2022/03/30 08:05:13;;;;;;;25.48;6.72;;;7.60;85.60;;;;;;5024381;28;20092;-78
2022/03/30 08:07:57;;;;;;;15.25;5.45;;;7.60;85.60;;;;;;5013491;28;20037;-80
2022/03/30 08:10:41;;;;;;;19.08;6.90;;;7.60;85.20;;;;;;5029282;28;20424;-77
2022/03/30 08:13:25;;;;;;;14.85;5.38;;;7.80;85.10;;;;;;5019060;28;20063;-78
2022/03/30 08:16:09;;;;;;;17.08;5.88;;;7.90;84.80;;;;;;5011635;28;20048;-80
2022/03/30 08:18:53;;;;;;;18.65;6.13;;;8.00;84.40;;;;;;5039612;28;20487;-78
2022/03/30 08:24:46;;;;;;;20.25;6.35;;;8.00;83.50;;;;;;5049394;28;20028;-79
2022/03/30 08:27:31;;;;;;;22.05;6.07;;;7.90;84.30;;;;;;5048039;28;20040;-79
2022/03/30 08:30:16;;;;;;;15.80;6.93;;;7.80;84.60;;;;;;5064436;28;20047;-78
2022/03/30 08:33:02;;;;;;;11.60;6.18;;;7.80;84.20;;;;;;5032113;28;20389;-79
2022/03/30 08:35:47;;;;;;;15.52;5.38;;;7.90;84.60;;;;;;5044009;28;20476;-78
2022/03/30 08:38:31;;;;;;;17.95;6.00;;;7.90;84.30;;;;;;5043763;28;20060;-79
2022/03/30 08:41:15;;;;;;;21.80;6.00;;;7.90;84.30;;;;;;5026455;28;20096;-79
2022/03/30 08:44:00;;;;;;;16.95;5.90;;;8.00;84.30;;;;;;5033882;28;20059;-79
2022/03/30 08:46:45;;;;;;;15.25;6.80;;;8.00;84.10;;;;;;5030978;28;20167;-79
2022/03/30 08:49:35;;;;;;;17.25;5.50;;;8.00;84.00;;;;;;5029451;28;20035;-78
2022/03/30 08:52:19;;;;;;;26.90;6.10;;;8.10;84.00;;;;;;5044540;28;20028;-79
2022/03/30 08:55:06;;;;;;;19.93;5.50;;;8.10;83.50;;;;;;5045917;28;20040;-79
2022/03/30 08:57:50;;;;;;;15.05;5.03;;;8.10;83.70;;;;;;5043509;28;20040;-78
2022/03/30 09:00:34;;;;;;;16.92;5.93;;;8.20;83.70;;;;;;5042655;28;20603;-79
2022/03/30 09:03:20;;;;;;;15.90;5.07;;;8.20;83.10;;;;;;5029441;28;20032;-79
2022/03/30 09:06:04;;;;;;;15.68;5.85;;;8.20;83.60;;;;;;5043122;28;20086;-78
2022/03/30 09:08:48;;;;;;;15.40;5.75;;;8.30;83.30;;;;;;5029147;28;20162;-78
2022/03/30 09:11:55;;;;;;;16.20;6.15;;;8.20;83.60;;;;;;5025340;28;20108;-78
2022/03/30 09:14:40;;;;;;;19.42;6.32;;;8.30;83.90;;;;;;5016375;28;20421;-79
2022/03/30 09:17:24;;;;;;;12.98;6.03;;;8.30;84.20;;;;;;5051097;28;20482;-81
2022/03/30 09:20:20;;;;;;;19.05;5.90;;;8.50;83.60;;;;;;5049134;28;20043;-78
2022/03/30 09:23:06;;;;;;;20.77;5.57;;;8.60;82.60;;;;;;5046042;28;20043;-79
2022/03/30 09:25:53;;;;;;;16.52;5.38;;;8.70;81.60;;;;;;5043799;28;20370;-78
2022/03/30 09:28:37;;;;;;;15.00;5.80;;;8.70;83.80;;;;;;5060753;28;20508;-79
2022/03/30 09:31:22;;;;;;;16.77;5.63;;;8.80;81.70;;;;;;5042768;28;20040;-77
2022/03/30 09:34:09;;;;;;;16.55;5.75;;;8.80;81.40;;;;;;5028277;28;20508;-77
2022/03/30 09:36:53;;;;;;;11.25;5.35;;;8.90;81.00;;;;;;5028625;28;20086;-76
2022/03/30 09:39:38;;;;;;;15.32;5.05;;;8.90;81.10;;;;;;5057496;28;20044;-77
2022/03/30 09:42:27;;;;;;;18.58;5.28;;;9.00;80.90;;;;;;5048031;28;20070;-78
2022/03/30 09:45:12;;;;;;;14.30;5.65;;;8.90;80.80;;;;;;5045539;28;20051;-77
2022/03/30 09:48:10;;;;;;;13.75;5.40;;;9.00;81.10;;;;;;5031900;28;20052;-76
2022/03/30 09:50:56;;;;;;;14.73;4.88;;;9.00;80.40;;;;;;5045973;28;20090;-78
2022/03/30 09:53:42;;;;;;;14.35;5.15;;;9.00;80.00;;;;;;5029974;28;20087;-79
2022/03/30 09:56:27;;;;;;;11.93;5.30;;;8.90;80.20;;;;;;5041400;28;20090;-77
2022/03/30 09:59:11;;;;;;;;;;;8.90;80.40;;;;;;5042817;28;20670;-79
2022/03/30 10:02:05;;;;;;;11.52;5.30;;;8.90;80.70;;;;;;5043346;28;19916;-77
2022/03/30 10:04:51;;;;;;;19.42;6.28;;;9.10;80.60;;;;;;5045524;28;20397;-78
2022/03/30 10:07:36;;;;;;;17.27;7.70;;;9.20;80.40;;;;;;5041667;28;20071;-78
2022/03/30 10:10:28;;;;;;;17.30;6.68;;;9.30;80.30;;;;;;5058466;28;20055;-79
2022/03/30 10:13:12;;;;;;;13.20;5.32;;;9.50;79.20;;;;;;5044017;28;20043;-77
2022/03/30 10:15:58;;;;;;;12.90;6.57;;;9.50;77.90;;;;;;5027475;28;20107;-77
2022/03/30 10:18:47;;;;;;;17.00;6.05;;;9.40;78.30;;;;;;5041783;28;20345;-76
2022/03/30 10:21:49;;;;;;;20.10;5.93;;;9.50;78.30;;;;;;5057236;28;20033;-79
2022/03/30 10:24:52;;;;;;;17.20;5.95;;;9.60;77.90;;;;;;5041391;28;20028;-77
2022/03/30 10:27:58;;;;;;;11.07;5.18;;;9.70;77.90;;;;;;5057399;28;20035;-76
2022/03/30 10:30:43;;;;;;;21.70;6.15;;;9.80;77.50;;;;;;5043688;28;20019;-77
2022/03/30 10:33:44;;;;;;;17.00;6.40;;;9.80;78.50;;;;;;5059301;28;20188;-77
2022/03/30 10:36:33;;;;;;;16.15;6.63;;;10.00;77.50;;;;;;5060724;28;20032;-76
2022/03/30 10:39:35;;;;;;;15.85;6.90;;;10.10;77.40;;;;;;5044363;28;20036;-80
2022/03/30 10:42:19;;;;;;;16.48;6.45;;;10.10;77.20;;;;;;5036732;28;20056;-76
2022/03/30 10:45:05;;;;;;;11.77;6.80;;;10.20;77.30;;;;;;5021447;28;20091;-77
2022/03/30 10:48:09;;;;;;;15.90;7.65;;;10.00;77.10;;;;;;5008073;28;20045;-76
2022/03/30 10:50:59;;;;;;;16.95;6.22;;;10.00;77.60;;;;;;5021850;28;20076;-80
2022/03/30 10:53:51;;;;;;;17.55;6.47;;;10.00;77.60;;;;;;5022581;28;20447;-77
2022/03/30 10:56:36;;;;;;;13.93;5.43;;;10.00;77.20;;;;;;5007543;28;20075;-77
2022/03/30 10:59:20;;;;;;;;;;;9.90;77.20;;;;;;5029864;28;20036;-76
2022/03/30 11:02:14;;;;;;;16.08;5.43;;;9.90;77.10;;;;;;5018267;28;19916;-77
2022/03/30 11:05:10;;;;;;;14.93;6.07;;;10.10;77.00;;;;;;5015294;28;20037;-80
2022/03/30 11:07:54;;;;;;;15.45;6.40;;;10.10;76.20;;;;;;5014490;28;20075;-80
2022/03/30 11:10:47;;;;;;;30.70;7.13;;;10.00;76.80;;;;;;5010421;28;20055;-76
2022/03/30 11:13:31;;;;;;;14.55;5.35;;;10.00;77.10;;;;;;5012548;28;20540;-77
2022/03/30 11:16:16;;;;;;;16.48;6.32;;;9.80;77.80;;;;;;5025155;28;20044;-78
2022/03/30 11:19:02;;;;;;;12.57;5.20;;;9.70;77.90;;;;;;5010413;28;20401;-78
2022/03/30 11:22:16;;;;;;;19.55;6.25;;;9.60;78.40;;;;;;5025028;28;20060;-77
2022/03/30 11:25:18;;;;;;;17.88;6.20;;;9.50;78.80;;;;;;5017977;28;20044;-77
2022/03/30 11:28:07;;;;;;;12.30;5.40;;;9.60;78.60;;;;;;5024846;28;20071;-77
2022/03/30 11:30:52;;;;;;;15.93;6.55;;;9.70;78.20;;;;;;5025613;28;20074;-76
2022/03/30 11:33:36;;;;;;;17.98;6.80;;;9.70;77.60;;;;;;5028916;28;20511;-78
2022/03/30 11:36:21;;;;;;;15.70;5.03;;;9.60;77.70;;;;;;5056314;28;20041;-77
2022/03/30 11:39:07;;;;;;;12.75;5.93;;;9.70;78.20;;;;;;5015225;28;20086;-80
2022/03/30 11:41:56;;;;;;;17.90;6.70;;;9.70;78.20;;;;;;5019643;28;20036;-80
2022/03/30 11:47:55;;;;;;;13.80;5.85;;;10.00;77.10;;;;;;5048214;28;20690;-80
2022/03/30 11:50:41;;;;;;;13.82;6.20;;;10.00;77.20;;;;;;5045111;28;20067;-78
2022/03/30 11:53:28;;;;;;;14.20;6.43;;;10.00;77.40;;;;;;5059566;28;20063;-78
2022/03/30 11:56:12;;;;;;;16.33;6.70;;;10.20;78.50;;;;;;5046485;28;20087;-80
2022/03/30 11:58:57;;;;;;;24.27;12.25;;;10.50;82.00;;;;;;5017933;28;20067;-79
2022/03/30 12:01:41;;;;;;;26.38;10.70;;;10.60;81.50;;;;;;5030780;28;20048;-78
2022/03/30 12:04:33;;;;;;;25.48;11.52;;;10.70;84.40;;;;;;5045279;28;20055;-82
2022/03/30 12:07:19;;;;;;;20.35;11.85;;;11.00;80.70;;;;;;5043178;28;20066;-78
2022/03/30 12:10:05;;;;;;;18.55;10.70;;;11.00;79.30;;;;;;5039609;28;20081;-79
2022/03/30 12:12:50;;;;;;;19.38;8.98;;;10.80;79.20;;;;;;5044255;28;20040;-80
2022/03/30 12:15:36;;;;;;;16.73;8.32;;;10.60;79.00;;;;;;5043861;28;20059;-76
2022/03/30 12:18:20;;;;;;;29.52;9.43;;;10.80;80.70;;;;;;5041922;28;20464;-75
2022/03/30 12:21:05;;;;;;;21.08;9.95;;;11.00;79.10;;;;;;5011151;28;20052;-76
2022/03/30 12:24:00;;;;;;;20.08;10.10;;;11.10;81.40;;;;;;5008602;28;20563;-77
2022/03/30 12:26:48;;;;;;;18.60;9.40;;;10.90;79.40;;;;;;5021986;28;20033;-76
2022/03/30 12:29:32;;;;;;;16.48;9.30;;;10.80;79.30;;;;;;5022421;28;20405;-76
2022/03/30 12:32:23;;;;;;;19.17;9.90;;;10.60;79.20;;;;;;5007445;28;20094;-76
2022/03/30 12:35:14;;;;;;;16.83;9.10;;;10.60;79.20;;;;;;5021169;28;20103;-77
2022/03/30 12:38:11;;;;;;;14.02;8.60;;;10.30;80.90;;;;;;5008233;28;20063;-77
2022/03/30 12:40:59;;;;;;;23.10;9.75;;;10.10;80.90;;;;;;5017451;28;20476;-78
2022/03/30 12:43:44;;;;;;;16.15;9.27;;;10.00;81.70;;;;;;5030452;28;20080;-78
2022/03/30 12:46:30;;;;;;;19.27;9.60;;;9.90;82.30;;;;;;5023077;28;20080;-78
2022/03/30 12:49:14;;;;;;;17.67;9.75;;;10.00;82.50;;;;;;5062335;28;20059;-77
2022/03/30 12:52:13;;;;;;;13.80;10.23;;;10.10;82.00;;;;;;5052389;28;20074;-76
2022/03/30 12:55:12;;;;;;;15.85;9.55;;;9.90;82.80;;;;;;5039662;28;20119;-78
2022/03/30 12:58:13;;;;;;;21.00;9.07;;;9.80;83.30;;;;;;5018253;28;20032;-79
2022/03/30 13:00:57;;;;;;;21.75;8.73;;;9.70;83.70;;;;;;5043512;28;20090;-80
2022/03/30 13:03:44;;;;;;;16.25;10.10;;;9.90;83.40;;;;;;5014328;28;20113;-80
2022/03/30 13:06:28;;;;;;;17.33;10.02;;;9.90;83.60;;;;;;5019474;28;20040;-77
2022/03/30 13:09:12;;;;;;;22.23;10.50;;;10.10;83.30;;;;;;5044299;28;20055;-77
2022/03/30 13:11:57;;;;;;;19.05;9.90;;;10.20;83.50;;;;;;5021347;28;20090;-77
2022/03/30 13:14:49;;;;;;;14.80;8.65;;;10.30;83.20;;;;;;5039844;28;20511;-77
2022/03/30 13:17:34;;;;;;;17.00;9.50;;;10.50;82.40;;;;;;5060039;28;20104;-78
2022/03/30 13:20:19;;;;;;;20.40;9.10;;;10.40;82.10;;;;;;5057225;28;20055;-80
2022/03/30 13:23:05;;;;;;;19.93;9.03;;;10.40;82.60;;;;;;5056601;28;20642;-80
2022/03/30 13:25:50;;;;;;;14.38;8.85;;;10.50;81.90;;;;;;5047828;28;20089;-80
2022/03/30 13:28:36;;;;;;;20.52;9.95;;;10.60;81.70;;;;;;5023145;28;20147;-79
2022/03/30 13:31:21;;;;;;;19.50;9.10;;;10.60;82.40;;;;;;5059456;28;20036;-78
2022/03/30 13:34:06;;;;;;;18.48;10.25;;;10.60;83.20;;;;;;5042926;28;20043;-79
2022/03/30 13:36:52;;;;;;;16.17;9.43;;;10.80;82.40;;;;;;5042671;28;20579;-78
2022/03/30 13:39:36;;;;;;;16.67;9.45;;;10.80;82.00;;;;;;5045832;28;20039;-78
2022/03/30 13:42:20;;;;;;;28.35;10.52;;;10.90;82.10;;;;;;5036841;28;20043;-79
2022/03/30 13:45:05;;;;;;;20.17;9.95;;;11.10;81.70;;;;;;5023672;28;20048;-79
2022/03/30 13:47:50;;;;;;;15.93;9.30;;;11.00;81.00;;;;;;5044830;28;20164;-77
2022/03/30 13:50:34;;;;;;;19.70;8.65;;;10.90;81.00;;;;;;5011442;28;20405;-79
2022/03/30 13:53:18;;;;;;;16.17;9.40;;;10.60;81.20;;;;;;5025326;28;20209;-79
2022/03/30 13:56:04;;;;;;;24.58;12.38;;;10.60;82.00;;;;;;4998206;28;20032;-77
2022/03/30 13:58:50;;;;;;;18.50;10.18;;;10.50;83.00;;;;;;5023351;28;20543;-77
2022/03/30 14:01:34;;;;;;;18.08;10.45;;;10.30;84.30;;;;;;5023431;28;20516;-77
2022/03/30 14:04:21;;;;;;;16.02;9.48;;;10.30;83.60;;;;;;5027895;28;20040;-76
2022/03/30 14:07:06;;;;;;;17.50;9.77;;;10.40;84.00;;;;;;5049430;28;20049;-77
2022/03/30 14:09:52;;;;;;;18.05;9.70;;;10.40;83.60;;;;;;5055670;28;20117;-76
2022/03/30 14:12:36;;;;;;;15.73;10.07;;;10.50;83.40;;;;;;5042357;28;20039;-78
2022/03/30 14:15:20;;;;;;;14.95;9.18;;;10.60;83.30;;;;;;5040524;28;20104;-76
2022/03/30 14:18:05;;;;;;;21.08;8.95;;;10.70;82.50;;;;;;5023777;28;20048;-76
2022/03/30 14:20:54;;;;;;;14.32;8.98;;;10.70;82.80;;;;;;5028721;28;20048;-79
2022/03/30 14:23:40;;;;;;;16.90;9.52;;;10.80;82.80;;;;;;5037079;28;20091;-76
2022/03/30 14:26:24;;;;;;;27.35;10.10;;;11.00;82.20;;;;;;5020481;28;20024;-76
2022/03/30 14:29:08;;;;;;;19.03;11.10;;;11.10;82.20;;;;;;5033327;28;20036;-80
2022/03/30 14:31:54;;;;;;;18.65;9.95;;;11.10;82.80;;;;;;5014056;28;20332;-76
2022/03/30 14:34:38;;;;;;;18.67;9.98;;;11.20;82.80;;;;;;5017978;28;20040;-76
2022/03/30 14:37:22;;;;;;;17.85;10.55;;;11.10;82.30;;;;;;5030573;28;20044;-78
2022/03/30 14:40:07;;;;;;;24.30;10.53;;;10.90;83.60;;;;;;5021131;28;20044;-80